Avalon, Wisconsin
Current Conditions -  °F | °C
As of 2:15 AM on Thursday 27 Nov 2014 (Local Time) from KJVL Reporting Station
Haze Haze  
Wind Chill: 13°   Ceiling: 7500
Heat Index: 21°   Visibility: 5mi
Dew Point: 21°   Wind: 7mph
Humidity: 100%   Direction: 300°WNW
Pressure: 30.24"   Gusts: NA
Location:  42.63°N, 88.87°W
Report Text: KJVL 270815Z AUTO 30006KT 5SM BR SCT060 OVC075 M06/M06 A3024 RMK AO2
Loading
Personal Weather Stations






























Interactive Weather Map New forecast layout! Learn more

10-Day Weather Forecast

Advertisements
Track Severe Weather on mobile